sensor_id;sensor_type;location;lat;lon;timestamp;P1;durP1;ratioP1;P2;durP2;ratioP2
10880;SDS011;5493;48.884;8.338;2022-11-11T00:00:48;4.90;;;3.13;;
10880;SDS011;5493;48.884;8.338;2022-11-11T00:03:15;5.43;;;2.40;;
10880;SDS011;5493;48.884;8.338;2022-11-11T00:05:41;7.70;;;2.00;;
10880;SDS011;5493;48.884;8.338;2022-11-11T00:08:08;2.83;;;1.50;;
10880;SDS011;5493;48.884;8.338;2022-11-11T00:10:34;2.33;;;1.27;;
10880;SDS011;5493;48.884;8.338;2022-11-11T00:13:03;4.07;;;1.67;;
10880;SDS011;5493;48.884;8.338;2022-11-11T00:15:30;3.13;;;2.20;;
10880;SDS011;5493;48.884;8.338;2022-11-11T00:17:57;22.93;;;8.63;;
10880;SDS011;5493;48.884;8.338;2022-11-11T00:20:41;37.47;;;13.87;;
10880;SDS011;5493;48.884;8.338;2022-11-11T00:23:26;15.70;;;6.40;;
10880;SDS011;5493;48.884;8.338;2022-11-11T00:26:12;3.00;;;1.80;;
10880;SDS011;5493;48.884;8.338;2022-11-11T00:28:41;2.13;;;1.60;;
10880;SDS011;5493;48.884;8.338;2022-11-11T00:31:09;4.33;;;1.73;;
10880;SDS011;5493;48.884;8.338;2022-11-11T00:33:37;1.50;;;1.17;;
10880;SDS011;5493;48.884;8.338;2022-11-11T00:36:04;2.53;;;1.20;;
10880;SDS011;5493;48.884;8.338;2022-11-11T00:38:30;5.13;;;2.17;;
10880;SDS011;5493;48.884;8.338;2022-11-11T00:41:14;2.53;;;1.80;;
10880;SDS011;5493;48.884;8.338;2022-11-11T00:43:43;5.60;;;2.60;;
10880;SDS011;5493;48.884;8.338;2022-11-11T00:46:11;4.80;;;2.70;;
10880;SDS011;5493;48.884;8.338;2022-11-11T00:48:56;3.57;;;2.20;;
10880;SDS011;5493;48.884;8.338;2022-11-11T00:51:45;2.57;;;1.90;;
10880;SDS011;5493;48.884;8.338;2022-11-11T00:54:12;2.23;;;1.33;;
10880;SDS011;5493;48.884;8.338;2022-11-11T00:56:38;2.07;;;1.37;;
10880;SDS011;5493;48.884;8.338;2022-11-11T00:59:07;1.90;;;1.50;;
10880;SDS011;5493;48.884;8.338;2022-11-11T01:01:34;1.43;;;1.27;;
10880;SDS011;5493;48.884;8.338;2022-11-11T01:04:02;3.30;;;1.63;;
10880;SDS011;5493;48.884;8.338;2022-11-11T01:06:29;3.13;;;1.50;;
10880;SDS011;5493;48.884;8.338;2022-11-11T01:08:56;3.77;;;1.53;;
10880;SDS011;5493;48.884;8.338;2022-11-11T01:11:22;2.73;;;1.20;;
10880;SDS011;5493;48.884;8.338;2022-11-11T01:13:50;2.47;;;1.10;;
10880;SDS011;5493;48.884;8.338;2022-11-11T01:16:19;1.70;;;1.30;;
10880;SDS011;5493;48.884;8.338;2022-11-11T01:18:47;1.20;;;1.10;;
10880;SDS011;5493;48.884;8.338;2022-11-11T01:21:14;3.60;;;1.10;;
10880;SDS011;5493;48.884;8.338;2022-11-11T01:23:43;2.50;;;1.10;;
10880;SDS011;5493;48.884;8.338;2022-11-11T01:26:12;1.27;;;0.90;;
10880;SDS011;5493;48.884;8.338;2022-11-11T01:28:41;1.27;;;0.80;;
10880;SDS011;5493;48.884;8.338;2022-11-11T01:31:09;1.13;;;0.90;;
10880;SDS011;5493;48.884;8.338;2022-11-11T01:33:38;0.90;;;0.60;;
10880;SDS011;5493;48.884;8.338;2022-11-11T01:36:06;1.10;;;0.80;;
10880;SDS011;5493;48.884;8.338;2022-11-11T01:38:34;1.60;;;0.90;;
10880;SDS011;5493;48.884;8.338;2022-11-11T01:41:01;0.97;;;0.77;;
10880;SDS011;5493;48.884;8.338;2022-11-11T01:43:50;2.67;;;1.03;;
10880;SDS011;5493;48.884;8.338;2022-11-11T01:46:20;1.23;;;0.70;;
10880;SDS011;5493;48.884;8.338;2022-11-11T01:48:54;0.83;;;0.80;;
10880;SDS011;5493;48.884;8.338;2022-11-11T01:51:44;2.47;;;1.00;;
10880;SDS011;5493;48.884;8.338;2022-11-11T01:54:16;1.40;;;1.00;;
10880;SDS011;5493;48.884;8.338;2022-11-11T01:56:48;2.63;;;0.77;;
10880;SDS011;5493;48.884;8.338;2022-11-11T01:59:18;1.63;;;1.30;;
10880;SDS011;5493;48.884;8.338;2022-11-11T02:01:45;3.17;;;1.13;;
10880;SDS011;5493;48.884;8.338;2022-11-11T02:04:14;2.27;;;1.10;;
10880;SDS011;5493;48.884;8.338;2022-11-11T02:07:01;3.27;;;1.10;;
10880;SDS011;5493;48.884;8.338;2022-11-11T02:09:31;1.30;;;1.13;;
10880;SDS011;5493;48.884;8.338;2022-11-11T02:11:58;2.50;;;0.97;;
10880;SDS011;5493;48.884;8.338;2022-11-11T02:14:46;1.17;;;1.03;;
10880;SDS011;5493;48.884;8.338;2022-11-11T02:17:17;2.73;;;1.07;;
10880;SDS011;5493;48.884;8.338;2022-11-11T02:19:47;1.30;;;0.90;;
10880;SDS011;5493;48.884;8.338;2022-11-11T02:22:17;1.40;;;0.90;;
10880;SDS011;5493;48.884;8.338;2022-11-11T02:24:50;3.53;;;0.80;;
10880;SDS011;5493;48.884;8.338;2022-11-11T02:27:19;1.03;;;0.90;;
10880;SDS011;5493;48.884;8.338;2022-11-11T02:29:48;1.10;;;1.00;;
10880;SDS011;5493;48.884;8.338;2022-11-11T02:32:17;2.00;;;1.07;;
10880;SDS011;5493;48.884;8.338;2022-11-11T02:34:43;0.80;;;0.80;;
10880;SDS011;5493;48.884;8.338;2022-11-11T02:37:10;1.57;;;0.83;;
10880;SDS011;5493;48.884;8.338;2022-11-11T02:39:39;2.13;;;0.90;;
10880;SDS011;5493;48.884;8.338;2022-11-11T02:42:11;1.63;;;1.00;;
10880;SDS011;5493;48.884;8.338;2022-11-11T02:44:40;1.03;;;0.90;;
10880;SDS011;5493;48.884;8.338;2022-11-11T02:47:06;1.10;;;1.00;;
10880;SDS011;5493;48.884;8.338;2022-11-11T02:49:33;1.70;;;1.17;;
10880;SDS011;5493;48.884;8.338;2022-11-11T02:52:00;2.63;;;1.30;;
10880;SDS011;5493;48.884;8.338;2022-11-11T02:54:27;1.90;;;1.23;;
10880;SDS011;5493;48.884;8.338;2022-11-11T02:56:53;2.10;;;1.40;;
10880;SDS011;5493;48.884;8.338;2022-11-11T02:59:34;1.70;;;1.60;;
10880;SDS011;5493;48.884;8.338;2022-11-11T03:02:01;1.60;;;1.40;;
10880;SDS011;5493;48.884;8.338;2022-11-11T03:04:27;2.03;;;1.40;;
10880;SDS011;5493;48.884;8.338;2022-11-11T03:06:54;1.87;;;1.27;;
10880;SDS011;5493;48.884;8.338;2022-11-11T03:09:20;1.73;;;1.33;;
10880;SDS011;5493;48.884;8.338;2022-11-11T03:11:47;2.63;;;1.40;;
10880;SDS011;5493;48.884;8.338;2022-11-11T03:14:14;2.93;;;1.60;;
10880;SDS011;5493;48.884;8.338;2022-11-11T03:16:41;2.10;;;1.43;;
10880;SDS011;5493;48.884;8.338;2022-11-11T03:19:26;1.83;;;1.40;;
10880;SDS011;5493;48.884;8.338;2022-11-11T03:21:52;2.30;;;1.27;;
10880;SDS011;5493;48.884;8.338;2022-11-11T03:24:19;1.90;;;1.00;;
10880;SDS011;5493;48.884;8.338;2022-11-11T03:26:46;1.80;;;1.20;;
10880;SDS011;5493;48.884;8.338;2022-11-11T03:29:12;1.63;;;0.90;;
10880;SDS011;5493;48.884;8.338;2022-11-11T03:31:38;2.63;;;1.27;;
10880;SDS011;5493;48.884;8.338;2022-11-11T03:34:06;1.40;;;1.03;;
10880;SDS011;5493;48.884;8.338;2022-11-11T03:36:45;2.43;;;1.00;;
10880;SDS011;5493;48.884;8.338;2022-11-11T03:39:29;2.70;;;1.30;;
10880;SDS011;5493;48.884;8.338;2022-11-11T03:41:56;2.07;;;1.20;;
10880;SDS011;5493;48.884;8.338;2022-11-11T03:44:23;4.20;;;1.50;;
10880;SDS011;5493;48.884;8.338;2022-11-11T03:46:52;3.93;;;1.47;;
10880;SDS011;5493;48.884;8.338;2022-11-11T03:49:20;2.37;;;1.17;;
10880;SDS011;5493;48.884;8.338;2022-11-11T03:51:47;4.43;;;1.20;;
10880;SDS011;5493;48.884;8.338;2022-11-11T03:54:13;2.67;;;1.30;;
10880;SDS011;5493;48.884;8.338;2022-11-11T03:56:40;1.77;;;1.37;;
10880;SDS011;5493;48.884;8.338;2022-11-11T03:59:06;3.00;;;1.50;;
10880;SDS011;5493;48.884;8.338;2022-11-11T04:01:33;1.53;;;1.20;;
10880;SDS011;5493;48.884;8.338;2022-11-11T04:04:17;2.37;;;1.77;;
10880;SDS011;5493;48.884;8.338;2022-11-11T04:07:02;2.43;;;2.17;;
10880;SDS011;5493;48.884;8.338;2022-11-11T04:09:46;4.13;;;2.47;;
10880;SDS011;5493;48.884;8.338;2022-11-11T04:12:30;2.37;;;1.83;;
10880;SDS011;5493;48.884;8.338;2022-11-11T04:15:19;2.57;;;1.97;;
10880;SDS011;5493;48.884;8.338;2022-11-11T04:18:03;2.60;;;1.97;;
10880;SDS011;5493;48.884;8.338;2022-11-11T04:20:29;3.13;;;2.07;;
10880;SDS011;5493;48.884;8.338;2022-11-11T04:23:15;5.30;;;2.40;;
10880;SDS011;5493;48.884;8.338;2022-11-11T04:25:41;3.00;;;2.30;;
10880;SDS011;5493;48.884;8.338;2022-11-11T04:28:13;6.07;;;2.70;;
10880;SDS011;5493;48.884;8.338;2022-11-11T04:30:57;3.90;;;2.40;;
10880;SDS011;5493;48.884;8.338;2022-11-11T04:33:24;6.57;;;2.40;;
10880;SDS011;5493;48.884;8.338;2022-11-11T04:35:51;4.43;;;2.27;;
10880;SDS011;5493;48.884;8.338;2022-11-11T04:38:19;5.73;;;2.67;;
10880;SDS011;5493;48.884;8.338;2022-11-11T04:41:03;8.70;;;3.10;;
10880;SDS011;5493;48.884;8.338;2022-11-11T04:43:30;6.50;;;3.80;;
10880;SDS011;5493;48.884;8.338;2022-11-11T04:46:17;4.47;;;3.00;;
10880;SDS011;5493;48.884;8.338;2022-11-11T04:48:43;6.73;;;2.80;;
10880;SDS011;5493;48.884;8.338;2022-11-11T04:51:09;15.40;;;2.60;;
10880;SDS011;5493;48.884;8.338;2022-11-11T04:53:38;18.67;;;2.30;;
10880;SDS011;5493;48.884;8.338;2022-11-11T04:56:05;6.40;;;2.23;;
10880;SDS011;5493;48.884;8.338;2022-11-11T04:58:51;14.73;;;3.23;;
10880;SDS011;5493;48.884;8.338;2022-11-11T05:01:37;9.60;;;2.27;;
10880;SDS011;5493;48.884;8.338;2022-11-11T05:04:21;7.40;;;2.00;;
10880;SDS011;5493;48.884;8.338;2022-11-11T05:06:48;3.97;;;2.23;;
10880;SDS011;5493;48.884;8.338;2022-11-11T05:09:33;5.77;;;2.43;;
10880;SDS011;5493;48.884;8.338;2022-11-11T05:12:00;7.23;;;2.40;;
10880;SDS011;5493;48.884;8.338;2022-11-11T05:14:26;2.10;;;1.90;;
10880;SDS011;5493;48.884;8.338;2022-11-11T05:17:11;2.67;;;2.10;;
10880;SDS011;5493;48.884;8.338;2022-11-11T05:19:54;2.50;;;1.80;;
10880;SDS011;5493;48.884;8.338;2022-11-11T05:22:39;6.10;;;2.30;;
10880;SDS011;5493;48.884;8.338;2022-11-11T05:25:08;17.10;;;2.37;;
10880;SDS011;5493;48.884;8.338;2022-11-11T05:27:49;3.33;;;2.00;;
10880;SDS011;5493;48.884;8.338;2022-11-11T05:30:16;4.77;;;2.10;;
10880;SDS011;5493;48.884;8.338;2022-11-11T05:32:43;18.13;;;2.23;;
10880;SDS011;5493;48.884;8.338;2022-11-11T05:35:10;7.17;;;1.83;;
10880;SDS011;5493;48.884;8.338;2022-11-11T05:37:37;8.03;;;2.50;;
10880;SDS011;5493;48.884;8.338;2022-11-11T05:40:05;17.27;;;2.53;;
10880;SDS011;5493;48.884;8.338;2022-11-11T05:42:34;16.27;;;2.83;;
10880;SDS011;5493;48.884;8.338;2022-11-11T05:45:00;10.07;;;2.23;;
10880;SDS011;5493;48.884;8.338;2022-11-11T05:47:27;7.43;;;2.77;;
10880;SDS011;5493;48.884;8.338;2022-11-11T05:49:53;3.33;;;2.47;;
10880;SDS011;5493;48.884;8.338;2022-11-11T05:52:20;2.23;;;1.77;;
10880;SDS011;5493;48.884;8.338;2022-11-11T05:54:46;2.70;;;1.50;;
10880;SDS011;5493;48.884;8.338;2022-11-11T05:57:13;3.30;;;1.73;;
10880;SDS011;5493;48.884;8.338;2022-11-11T05:59:41;4.80;;;2.00;;
10880;SDS011;5493;48.884;8.338;2022-11-11T06:02:08;2.57;;;1.70;;
10880;SDS011;5493;48.884;8.338;2022-11-11T06:04:34;9.87;;;2.10;;
10880;SDS011;5493;48.884;8.338;2022-11-11T06:07:01;2.60;;;1.90;;
10880;SDS011;5493;48.884;8.338;2022-11-11T06:09:28;2.17;;;1.63;;
10880;SDS011;5493;48.884;8.338;2022-11-11T06:11:54;8.57;;;2.27;;
10880;SDS011;5493;48.884;8.338;2022-11-11T06:14:21;3.20;;;1.80;;
10880;SDS011;5493;48.884;8.338;2022-11-11T06:16:49;2.40;;;1.93;;
10880;SDS011;5493;48.884;8.338;2022-11-11T06:19:15;3.70;;;2.17;;
10880;SDS011;5493;48.884;8.338;2022-11-11T06:21:42;2.93;;;2.00;;
10880;SDS011;5493;48.884;8.338;2022-11-11T06:24:25;3.20;;;2.10;;
10880;SDS011;5493;48.884;8.338;2022-11-11T06:26:52;3.00;;;2.07;;
10880;SDS011;5493;48.884;8.338;2022-11-11T06:29:18;3.10;;;2.47;;
10880;SDS011;5493;48.884;8.338;2022-11-11T06:31:45;3.90;;;2.40;;
10880;SDS011;5493;48.884;8.338;2022-11-11T06:34:13;4.43;;;2.33;;
10880;SDS011;5493;48.884;8.338;2022-11-11T06:36:39;3.70;;;2.27;;
10880;SDS011;5493;48.884;8.338;2022-11-11T06:39:06;3.13;;;2.10;;
10880;SDS011;5493;48.884;8.338;2022-11-11T06:41:33;4.37;;;2.30;;
10880;SDS011;5493;48.884;8.338;2022-11-11T06:43:59;3.07;;;2.17;;
10880;SDS011;5493;48.884;8.338;2022-11-11T06:46:26;2.70;;;1.83;;
10880;SDS011;5493;48.884;8.338;2022-11-11T06:48:52;3.17;;;2.50;;
10880;SDS011;5493;48.884;8.338;2022-11-11T06:51:20;4.83;;;2.07;;
10880;SDS011;5493;48.884;8.338;2022-11-11T06:53:47;19.83;;;2.43;;
10880;SDS011;5493;48.884;8.338;2022-11-11T06:56:14;12.00;;;1.93;;
10880;SDS011;5493;48.884;8.338;2022-11-11T06:58:40;2.67;;;2.17;;
10880;SDS011;5493;48.884;8.338;2022-11-11T07:01:07;3.73;;;2.80;;
10880;SDS011;5493;48.884;8.338;2022-11-11T07:03:34;3.47;;;2.60;;
10880;SDS011;5493;48.884;8.338;2022-11-11T07:06:02;9.30;;;2.77;;
10880;SDS011;5493;48.884;8.338;2022-11-11T07:08:31;8.87;;;2.50;;
10880;SDS011;5493;48.884;8.338;2022-11-11T07:10:58;13.07;;;2.77;;
10880;SDS011;5493;48.884;8.338;2022-11-11T07:13:24;22.13;;;2.73;;
10880;SDS011;5493;48.884;8.338;2022-11-11T07:15:51;10.23;;;2.70;;
10880;SDS011;5493;48.884;8.338;2022-11-11T07:18:17;16.73;;;2.67;;
10880;SDS011;5493;48.884;8.338;2022-11-11T07:20:44;11.63;;;2.83;;
10880;SDS011;5493;48.884;8.338;2022-11-11T07:23:11;7.97;;;2.57;;
10880;SDS011;5493;48.884;8.338;2022-11-11T07:25:38;7.50;;;2.47;;
10880;SDS011;5493;48.884;8.338;2022-11-11T07:28:05;3.40;;;2.33;;
10880;SDS011;5493;48.884;8.338;2022-11-11T07:30:32;3.00;;;2.50;;
10880;SDS011;5493;48.884;8.338;2022-11-11T07:32:58;8.53;;;2.50;;
10880;SDS011;5493;48.884;8.338;2022-11-11T07:35:25;9.87;;;2.80;;
10880;SDS011;5493;48.884;8.338;2022-11-11T07:37:51;10.07;;;2.90;;
10880;SDS011;5493;48.884;8.338;2022-11-11T07:40:18;6.27;;;2.90;;
10880;SDS011;5493;48.884;8.338;2022-11-11T07:42:46;16.03;;;2.73;;
10880;SDS011;5493;48.884;8.338;2022-11-11T07:45:13;18.67;;;2.90;;
10880;SDS011;5493;48.884;8.338;2022-11-11T07:47:43;22.73;;;2.93;;
10880;SDS011;5493;48.884;8.338;2022-11-11T07:50:10;17.40;;;3.30;;
10880;SDS011;5493;48.884;8.338;2022-11-11T07:52:38;3.47;;;2.60;;
10880;SDS011;5493;48.884;8.338;2022-11-11T07:55:05;4.30;;;2.93;;
10880;SDS011;5493;48.884;8.338;2022-11-11T07:57:32;11.23;;;2.43;;
10880;SDS011;5493;48.884;8.338;2022-11-11T08:00:01;11.97;;;2.10;;
10880;SDS011;5493;48.884;8.338;2022-11-11T08:02:27;7.97;;;2.20;;
10880;SDS011;5493;48.884;8.338;2022-11-11T08:04:54;4.23;;;2.00;;
10880;SDS011;5493;48.884;8.338;2022-11-11T08:07:21;2.13;;;1.87;;
10880;SDS011;5493;48.884;8.338;2022-11-11T08:09:48;2.13;;;1.90;;
10880;SDS011;5493;48.884;8.338;2022-11-11T08:12:14;2.13;;;1.77;;
10880;SDS011;5493;48.884;8.338;2022-11-11T08:14:58;2.00;;;1.77;;
10880;SDS011;5493;48.884;8.338;2022-11-11T08:17:26;4.70;;;2.30;;
10880;SDS011;5493;48.884;8.338;2022-11-11T08:19:53;4.73;;;2.73;;
10880;SDS011;5493;48.884;8.338;2022-11-11T08:22:19;4.67;;;2.20;;
10880;SDS011;5493;48.884;8.338;2022-11-11T08:24:46;5.60;;;2.90;;
10880;SDS011;5493;48.884;8.338;2022-11-11T08:27:12;5.10;;;2.97;;
10880;SDS011;5493;48.884;8.338;2022-11-11T08:29:39;7.63;;;2.20;;
10880;SDS011;5493;48.884;8.338;2022-11-11T08:32:05;8.30;;;2.30;;
10880;SDS011;5493;48.884;8.338;2022-11-11T08:34:33;7.07;;;2.40;;
10880;SDS011;5493;48.884;8.338;2022-11-11T08:37:00;9.00;;;1.83;;
10880;SDS011;5493;48.884;8.338;2022-11-11T08:39:26;4.13;;;1.70;;
10880;SDS011;5493;48.884;8.338;2022-11-11T08:41:53;2.83;;;1.87;;
10880;SDS011;5493;48.884;8.338;2022-11-11T08:44:20;1.90;;;1.70;;
10880;SDS011;5493;48.884;8.338;2022-11-11T08:46:46;5.40;;;1.87;;
10880;SDS011;5493;48.884;8.338;2022-11-11T08:49:13;4.53;;;1.93;;
10880;SDS011;5493;48.884;8.338;2022-11-11T08:51:41;4.70;;;2.20;;
10880;SDS011;5493;48.884;8.338;2022-11-11T08:54:07;13.10;;;2.23;;
10880;SDS011;5493;48.884;8.338;2022-11-11T08:56:34;2.33;;;2.03;;
10880;SDS011;5493;48.884;8.338;2022-11-11T08:59:01;2.43;;;1.77;;
10880;SDS011;5493;48.884;8.338;2022-11-11T09:01:27;3.70;;;2.70;;
10880;SDS011;5493;48.884;8.338;2022-11-11T09:03:54;2.60;;;2.40;;
10880;SDS011;5493;48.884;8.338;2022-11-11T09:06:20;3.70;;;2.83;;
10880;SDS011;5493;48.884;8.338;2022-11-11T09:08:48;7.17;;;3.80;;
10880;SDS011;5493;48.884;8.338;2022-11-11T09:11:15;7.53;;;4.70;;
10880;SDS011;5493;48.884;8.338;2022-11-11T09:13:42;7.07;;;3.97;;
10880;SDS011;5493;48.884;8.338;2022-11-11T09:16:08;4.50;;;3.53;;
10880;SDS011;5493;48.884;8.338;2022-11-11T09:18:35;7.20;;;4.03;;
10880;SDS011;5493;48.884;8.338;2022-11-11T09:21:02;4.77;;;3.60;;
10880;SDS011;5493;48.884;8.338;2022-11-11T09:23:28;5.57;;;3.63;;
10880;SDS011;5493;48.884;8.338;2022-11-11T09:25:58;4.40;;;2.87;;
10880;SDS011;5493;48.884;8.338;2022-11-11T09:28:28;4.90;;;3.30;;
10880;SDS011;5493;48.884;8.338;2022-11-11T09:30:57;3.10;;;2.80;;
10880;SDS011;5493;48.884;8.338;2022-11-11T09:33:24;3.57;;;2.80;;
10880;SDS011;5493;48.884;8.338;2022-11-11T09:35:50;14.27;;;3.10;;
10880;SDS011;5493;48.884;8.338;2022-11-11T09:38:17;3.40;;;2.90;;
10880;SDS011;5493;48.884;8.338;2022-11-11T09:40:49;3.47;;;2.97;;
10880;SDS011;5493;48.884;8.338;2022-11-11T09:43:27;4.10;;;3.20;;
10880;SDS011;5493;48.884;8.338;2022-11-11T09:46:15;4.47;;;3.40;;
10880;SDS011;5493;48.884;8.338;2022-11-11T09:48:51;4.83;;;3.57;;
10880;SDS011;5493;48.884;8.338;2022-11-11T09:51:48;5.23;;;3.47;;
10880;SDS011;5493;48.884;8.338;2022-11-11T09:54:26;4.17;;;3.67;;
10880;SDS011;5493;48.884;8.338;2022-11-11T09:57:00;7.70;;;3.83;;
10880;SDS011;5493;48.884;8.338;2022-11-11T09:59:33;5.40;;;3.40;;
10880;SDS011;5493;48.884;8.338;2022-11-11T10:02:12;3.93;;;3.20;;
10880;SDS011;5493;48.884;8.338;2022-11-11T10:04:46;3.33;;;2.93;;
10880;SDS011;5493;48.884;8.338;2022-11-11T10:07:20;9.80;;;3.37;;
10880;SDS011;5493;48.884;8.338;2022-11-11T10:09:55;3.90;;;2.70;;
10880;SDS011;5493;48.884;8.338;2022-11-11T10:12:25;3.80;;;2.60;;
10880;SDS011;5493;48.884;8.338;2022-11-11T10:15:04;3.33;;;2.67;;
10880;SDS011;5493;48.884;8.338;2022-11-11T10:17:37;2.97;;;2.67;;
10880;SDS011;5493;48.884;8.338;2022-11-11T10:20:10;3.07;;;2.60;;
10880;SDS011;5493;48.884;8.338;2022-11-11T10:22:44;3.23;;;2.77;;
10880;SDS011;5493;48.884;8.338;2022-11-11T10:25:18;4.40;;;3.20;;
10880;SDS011;5493;48.884;8.338;2022-11-11T10:27:47;4.17;;;2.93;;
10880;SDS011;5493;48.884;8.338;2022-11-11T10:30:18;3.43;;;2.60;;
10880;SDS011;5493;48.884;8.338;2022-11-11T10:32:49;3.63;;;3.10;;
10880;SDS011;5493;48.884;8.338;2022-11-11T10:35:21;5.40;;;3.90;;
10880;SDS011;5493;48.884;8.338;2022-11-11T10:37:50;4.80;;;3.90;;
10880;SDS011;5493;48.884;8.338;2022-11-11T10:40:26;8.33;;;5.40;;
10880;SDS011;5493;48.884;8.338;2022-11-11T10:42:59;4.80;;;4.10;;
10880;SDS011;5493;48.884;8.338;2022-11-11T10:45:27;5.60;;;3.90;;
10880;SDS011;5493;48.884;8.338;2022-11-11T10:47:57;3.83;;;3.37;;
10880;SDS011;5493;48.884;8.338;2022-11-11T10:50:28;5.30;;;4.10;;
10880;SDS011;5493;48.884;8.338;2022-11-11T10:53:03;7.20;;;3.77;;
10880;SDS011;5493;48.884;8.338;2022-11-11T10:55:39;4.50;;;3.40;;
10880;SDS011;5493;48.884;8.338;2022-11-11T10:58:12;5.10;;;4.37;;
10880;SDS011;5493;48.884;8.338;2022-11-11T11:00:47;4.80;;;4.00;;
10880;SDS011;5493;48.884;8.338;2022-11-11T11:03:17;4.43;;;3.83;;
10880;SDS011;5493;48.884;8.338;2022-11-11T11:05:49;4.20;;;3.40;;
10880;SDS011;5493;48.884;8.338;2022-11-11T11:08:21;6.43;;;3.77;;
10880;SDS011;5493;48.884;8.338;2022-11-11T11:10:52;3.60;;;2.93;;
10880;SDS011;5493;48.884;8.338;2022-11-11T11:13:24;4.37;;;2.73;;
10880;SDS011;5493;48.884;8.338;2022-11-11T11:15:57;4.30;;;3.17;;
10880;SDS011;5493;48.884;8.338;2022-11-11T11:18:28;3.40;;;2.97;;
10880;SDS011;5493;48.884;8.338;2022-11-11T11:20:56;4.47;;;3.23;;
10880;SDS011;5493;48.884;8.338;2022-11-11T11:23:36;3.43;;;3.10;;
10880;SDS011;5493;48.884;8.338;2022-11-11T11:26:05;3.20;;;2.90;;
10880;SDS011;5493;48.884;8.338;2022-11-11T11:28:33;4.03;;;3.30;;
10880;SDS011;5493;48.884;8.338;2022-11-11T11:31:01;3.60;;;3.20;;
10880;SDS011;5493;48.884;8.338;2022-11-11T11:33:49;5.70;;;3.60;;
10880;SDS011;5493;48.884;8.338;2022-11-11T11:36:17;4.50;;;3.47;;
10880;SDS011;5493;48.884;8.338;2022-11-11T11:38:45;4.67;;;3.63;;
10880;SDS011;5493;48.884;8.338;2022-11-11T11:41:14;5.03;;;4.17;;
10880;SDS011;5493;48.884;8.338;2022-11-11T11:43:41;4.73;;;3.83;;
10880;SDS011;5493;48.884;8.338;2022-11-11T11:46:15;4.67;;;4.10;;
10880;SDS011;5493;48.884;8.338;2022-11-11T11:48:52;4.53;;;4.13;;
10880;SDS011;5493;48.884;8.338;2022-11-11T11:51:27;7.37;;;3.97;;
10880;SDS011;5493;48.884;8.338;2022-11-11T11:54:03;5.50;;;3.63;;
10880;SDS011;5493;48.884;8.338;2022-11-11T11:56:41;5.70;;;3.80;;
10880;SDS011;5493;48.884;8.338;2022-11-11T11:59:12;3.87;;;3.40;;
10880;SDS011;5493;48.884;8.338;2022-11-11T12:01:48;4.97;;;3.73;;
10880;SDS011;5493;48.884;8.338;2022-11-11T12:07:35;5.57;;;4.80;;
10880;SDS011;5493;48.884;8.338;2022-11-11T12:10:27;7.27;;;5.60;;
10880;SDS011;5493;48.884;8.338;2022-11-11T12:13:03;6.13;;;5.03;;
10880;SDS011;5493;48.884;8.338;2022-11-11T12:15:42;5.53;;;4.40;;
10880;SDS011;5493;48.884;8.338;2022-11-11T12:18:29;7.07;;;4.47;;
10880;SDS011;5493;48.884;8.338;2022-11-11T12:21:17;5.10;;;4.23;;
10880;SDS011;5493;48.884;8.338;2022-11-11T12:23:50;6.13;;;4.40;;
10880;SDS011;5493;48.884;8.338;2022-11-11T12:26:24;5.10;;;4.60;;
10880;SDS011;5493;48.884;8.338;2022-11-11T12:29:07;6.37;;;4.47;;
10880;SDS011;5493;48.884;8.338;2022-11-11T12:31:47;5.10;;;3.97;;
10880;SDS011;5493;48.884;8.338;2022-11-11T12:37:30;4.73;;;3.90;;
10880;SDS011;5493;48.884;8.338;2022-11-11T12:40:13;4.73;;;3.83;;
10880;SDS011;5493;48.884;8.338;2022-11-11T12:42:50;5.73;;;4.17;;
10880;SDS011;5493;48.884;8.338;2022-11-11T12:45:29;4.83;;;4.33;;
10880;SDS011;5493;48.884;8.338;2022-11-11T12:48:02;4.63;;;4.17;;
10880;SDS011;5493;48.884;8.338;2022-11-11T12:50:38;4.97;;;4.40;;
10880;SDS011;5493;48.884;8.338;2022-11-11T12:53:16;8.47;;;4.57;;
10880;SDS011;5493;48.884;8.338;2022-11-11T12:55:50;6.40;;;4.37;;
10880;SDS011;5493;48.884;8.338;2022-11-11T12:58:27;5.70;;;4.83;;
10880;SDS011;5493;48.884;8.338;2022-11-11T13:01:05;5.50;;;4.90;;
10880;SDS011;5493;48.884;8.338;2022-11-11T13:03:47;5.93;;;4.80;;
10880;SDS011;5493;48.884;8.338;2022-11-11T13:06:28;5.17;;;4.37;;
10880;SDS011;5493;48.884;8.338;2022-11-11T13:09:11;6.77;;;4.77;;
10880;SDS011;5493;48.884;8.338;2022-11-11T13:11:48;4.93;;;4.50;;
10880;SDS011;5493;48.884;8.338;2022-11-11T13:14:34;4.70;;;4.07;;
10880;SDS011;5493;48.884;8.338;2022-11-11T13:17:14;4.23;;;3.80;;
10880;SDS011;5493;48.884;8.338;2022-11-11T13:19:42;4.30;;;3.80;;
10880;SDS011;5493;48.884;8.338;2022-11-11T13:22:13;5.13;;;4.10;;
10880;SDS011;5493;48.884;8.338;2022-11-11T13:24:47;5.10;;;3.83;;
10880;SDS011;5493;48.884;8.338;2022-11-11T13:27:15;4.57;;;4.10;;
10880;SDS011;5493;48.884;8.338;2022-11-11T13:30:02;7.37;;;4.77;;
10880;SDS011;5493;48.884;8.338;2022-11-11T13:32:33;5.57;;;4.67;;
10880;SDS011;5493;48.884;8.338;2022-11-11T13:35:04;5.27;;;4.20;;
10880;SDS011;5493;48.884;8.338;2022-11-11T13:37:43;6.07;;;4.47;;
10880;SDS011;5493;48.884;8.338;2022-11-11T13:40:20;7.77;;;4.87;;
10880;SDS011;5493;48.884;8.338;2022-11-11T13:42:56;5.33;;;4.70;;
10880;SDS011;5493;48.884;8.338;2022-11-11T13:45:23;5.63;;;4.73;;
10880;SDS011;5493;48.884;8.338;2022-11-11T13:47:53;7.03;;;4.57;;
10880;SDS011;5493;48.884;8.338;2022-11-11T13:50:22;6.03;;;4.80;;
10880;SDS011;5493;48.884;8.338;2022-11-11T13:52:53;6.07;;;4.70;;
10880;SDS011;5493;48.884;8.338;2022-11-11T13:55:27;7.77;;;5.27;;
10880;SDS011;5493;48.884;8.338;2022-11-11T13:57:57;9.93;;;5.50;;
10880;SDS011;5493;48.884;8.338;2022-11-11T14:00:26;9.10;;;5.30;;
10880;SDS011;5493;48.884;8.338;2022-11-11T14:12:20;6.63;;;5.30;;
10880;SDS011;5493;48.884;8.338;2022-11-11T14:15:01;9.13;;;5.83;;
10880;SDS011;5493;48.884;8.338;2022-11-11T14:17:32;8.53;;;6.37;;
10880;SDS011;5493;48.884;8.338;2022-11-11T14:23:13;8.20;;;6.40;;
10880;SDS011;5493;48.884;8.338;2022-11-11T14:25:47;6.03;;;5.40;;
10880;SDS011;5493;48.884;8.338;2022-11-11T14:28:20;8.43;;;5.80;;
10880;SDS011;5493;48.884;8.338;2022-11-11T14:30:48;8.83;;;6.47;;
10880;SDS011;5493;48.884;8.338;2022-11-11T14:33:17;7.43;;;6.00;;
10880;SDS011;5493;48.884;8.338;2022-11-11T14:35:54;6.93;;;5.50;;
10880;SDS011;5493;48.884;8.338;2022-11-11T14:38:26;7.70;;;5.97;;
10880;SDS011;5493;48.884;8.338;2022-11-11T14:50:00;7.47;;;4.87;;
10880;SDS011;5493;48.884;8.338;2022-11-11T14:52:31;7.63;;;5.20;;
10880;SDS011;5493;48.884;8.338;2022-11-11T14:57:47;9.07;;;5.90;;
10880;SDS011;5493;48.884;8.338;2022-11-11T15:00:17;7.07;;;5.60;;
10880;SDS011;5493;48.884;8.338;2022-11-11T15:02:46;8.80;;;6.37;;
10880;SDS011;5493;48.884;8.338;2022-11-11T15:05:17;10.10;;;6.40;;
10880;SDS011;5493;48.884;8.338;2022-11-11T15:08:00;9.17;;;6.40;;
10880;SDS011;5493;48.884;8.338;2022-11-11T15:10:38;11.77;;;7.80;;
10880;SDS011;5493;48.884;8.338;2022-11-11T15:13:23;11.60;;;6.97;;
10880;SDS011;5493;48.884;8.338;2022-11-11T15:16:04;8.70;;;6.97;;
10880;SDS011;5493;48.884;8.338;2022-11-11T15:18:43;8.40;;;6.23;;
10880;SDS011;5493;48.884;8.338;2022-11-11T15:21:19;7.97;;;6.83;;
10880;SDS011;5493;48.884;8.338;2022-11-11T15:23:54;10.20;;;6.63;;
10880;SDS011;5493;48.884;8.338;2022-11-11T15:26:30;11.80;;;7.33;;
10880;SDS011;5493;48.884;8.338;2022-11-11T15:29:11;12.20;;;6.67;;
10880;SDS011;5493;48.884;8.338;2022-11-11T15:31:54;12.93;;;7.20;;
10880;SDS011;5493;48.884;8.338;2022-11-11T15:34:30;10.30;;;7.23;;
10880;SDS011;5493;48.884;8.338;2022-11-11T15:37:05;9.63;;;7.10;;
10880;SDS011;5493;48.884;8.338;2022-11-11T15:39:37;10.30;;;7.20;;
10880;SDS011;5493;48.884;8.338;2022-11-11T15:42:09;9.93;;;8.07;;
10880;SDS011;5493;48.884;8.338;2022-11-11T15:44:39;15.33;;;7.27;;
10880;SDS011;5493;48.884;8.338;2022-11-11T15:47:10;20.70;;;7.73;;
10880;SDS011;5493;48.884;8.338;2022-11-11T15:49:39;11.20;;;8.17;;
10880;SDS011;5493;48.884;8.338;2022-11-11T15:52:27;12.77;;;7.97;;
10880;SDS011;5493;48.884;8.338;2022-11-11T15:54:55;15.43;;;7.47;;
10880;SDS011;5493;48.884;8.338;2022-11-11T15:57:24;16.37;;;7.07;;